Decoded Metar for KBDR (STRATFORD in CT, USA) (IATA:BDR) | Meteo·Mobile Aviation Weather
aviador You're here:

KBDR Decoded Metar

STRATFORD in CT, USA
Report Time2018-10-24 04:52:00
UTC Time2018-10-24 05:21:22
Flight Rules vfr VFR
Wind290° at 07 kt
W.Decomp.*RWY 29: 6.8 kt HW 1.6 kt RCW
RWY 24: 3.2 kt HW 6.2 kt RCW
W.Rank290° ranks 16
Current wind is below 290° avg. (9.5)
Visibility9999 m
Phenomena:N/A
Clouds:N/A
Expected CloudBase > 1,200 ft AGL from Temp-Dew spread
CeilingNone
Temp07°C (ISA -8)
Dew Point04°C (81% RH)
AAT3.2°C
QNH1015 hPa
Density Alt-892 ft
Elevation23 ft
Report Wrong Elevation
Raw Report
KBDR 240452Z AUTO 29007KT 10SM CLR 07/04 A2996 RMK AO2 SLP146
T00720039 401780072=

Extra information for KBDR:More info

Metar Taf Metar & Taf Last 4 Metars F.Rules Stats Wind Profile Meteogram Temp Stats Airport Information Weather charts Add Link Nearby VenuesMetar ALERT Operation Metar Decoded Social comments

AIRNAV info for KBDR